createdAt,value
2023-02-09T00:01:02.257Z,1.40
2023-02-09T00:03:28.960Z,1.20
2023-02-09T00:05:55.666Z,1.40
2023-02-09T00:08:22.565Z,1.30
2023-02-09T00:10:49.244Z,1.30
2023-02-09T00:13:15.890Z,1.30
2023-02-09T00:15:42.528Z,1.20
2023-02-09T00:18:09.207Z,1.10
2023-02-09T00:20:35.886Z,1.20
2023-02-09T00:23:02.540Z,1.20
2023-02-09T00:25:29.178Z,1.30
2023-02-09T00:27:55.869Z,1.30
2023-02-09T00:30:22.542Z,1.30
2023-02-09T00:32:49.225Z,1.30
2023-02-09T00:35:15.894Z,0.80
2023-02-09T00:37:42.554Z,0.50
2023-02-09T00:40:09.262Z,0.70
2023-02-09T00:42:35.906Z,0.80
2023-02-09T00:45:02.547Z,0.80
2023-02-09T00:47:29.190Z,0.90
2023-02-09T00:49:55.830Z,0.80
2023-02-09T00:52:22.494Z,0.80
2023-02-09T00:54:49.122Z,0.80
2023-02-09T00:57:15.745Z,0.80
2023-02-09T00:59:42.411Z,0.60
2023-02-09T01:02:09.131Z,0.30
2023-02-09T01:04:35.749Z,0.20
2023-02-09T01:07:02.392Z,0.30
2023-02-09T01:09:29.054Z,0.30
2023-02-09T01:11:55.727Z,0.20
2023-02-09T01:14:22.384Z,0.30
2023-02-09T01:16:49.083Z,0.30
2023-02-09T01:19:15.787Z,0.30
2023-02-09T01:21:42.448Z,0.30
2023-02-09T01:24:09.077Z,-0.20
2023-02-09T01:26:35.789Z,-0.40
2023-02-09T01:29:02.501Z,-0.20
2023-02-09T01:31:29.200Z,0.10
2023-02-09T01:33:55.987Z,0.20
2023-02-09T01:36:22.675Z,0.20
2023-02-09T01:38:49.329Z,0.10
2023-02-09T01:41:16.075Z,0.10
2023-02-09T01:43:42.774Z,-0.50
2023-02-09T01:46:09.458Z,-0.30
2023-02-09T01:48:36.108Z,-0.20
2023-02-09T01:51:02.781Z,-0.20
2023-02-09T01:53:29.426Z,-0.10
2023-02-09T01:55:56.115Z,-0.10
2023-02-09T01:58:22.747Z,-0.10
2023-02-09T02:00:49.470Z,-0.10
2023-02-09T02:03:16.104Z,-0.20
2023-02-09T02:05:42.750Z,-0.10
2023-02-09T02:08:09.564Z,-0.20
2023-02-09T02:10:36.220Z,-0.20
2023-02-09T02:13:02.855Z,-0.30
2023-02-09T02:15:29.463Z,-0.60
2023-02-09T02:17:56.107Z,-1.30
2023-02-09T02:20:22.746Z,-1.10
2023-02-09T02:22:49.431Z,-0.80
2023-02-09T02:25:16.062Z,-0.70
2023-02-09T02:27:42.823Z,-0.70
2023-02-09T02:30:09.547Z,-0.80
2023-02-09T02:32:36.226Z,-0.90
2023-02-09T02:35:02.913Z,-0.80
2023-02-09T02:37:29.639Z,-0.80
2023-02-09T02:39:56.308Z,-0.80
2023-02-09T02:42:22.914Z,-0.80
2023-02-09T02:44:49.556Z,-0.90
2023-02-09T02:47:16.218Z,-1.00
2023-02-09T02:49:42.821Z,-1.00
2023-02-09T02:52:09.547Z,-1.00
2023-02-09T02:54:36.229Z,-1.00
2023-02-09T02:57:02.927Z,-1.10
2023-02-09T02:59:29.577Z,-1.20
2023-02-09T03:01:56.334Z,-1.20
2023-02-09T03:04:23.032Z,-1.30
2023-02-09T03:06:49.636Z,-1.40
2023-02-09T03:09:16.301Z,-1.30
2023-02-09T03:11:42.925Z,-1.30
2023-02-09T03:14:09.568Z,-1.30
2023-02-09T03:16:36.174Z,-1.30
2023-02-09T03:19:05.401Z,-1.30
2023-02-09T03:21:32.095Z,-1.30
2023-02-09T03:23:58.779Z,-1.30
2023-02-09T03:26:25.459Z,-1.40
2023-02-09T03:28:52.070Z,-1.30
2023-02-09T03:31:18.818Z,-1.40
2023-02-09T03:33:45.520Z,-1.40
2023-02-09T03:36:12.145Z,-1.40
2023-02-09T03:38:38.845Z,-1.50
2023-02-09T03:41:07.748Z,-1.90
2023-02-09T03:43:34.571Z,-1.90
2023-02-09T03:46:01.317Z,-2.00
2023-02-09T03:48:27.932Z,-2.30
2023-02-09T03:50:54.631Z,-2.20
2023-02-09T03:53:21.261Z,-2.00
2023-02-09T03:55:47.922Z,-1.90
2023-02-09T03:58:14.610Z,-2.00
2023-02-09T04:00:41.583Z,-2.00
2023-02-09T04:03:08.200Z,-1.90
2023-02-09T04:05:35.383Z,-1.90
2023-02-09T04:08:02.265Z,-2.20
2023-02-09T04:10:28.935Z,-2.10
2023-02-09T04:12:56.018Z,-2.30
2023-02-09T04:15:22.841Z,-2.20
2023-02-09T04:17:50.833Z,-2.50
2023-02-09T04:20:17.613Z,-2.40
2023-02-09T04:22:44.293Z,-2.50
2023-02-09T04:25:10.973Z,-2.50
2023-02-09T04:27:37.669Z,-2.40
2023-02-09T04:30:04.276Z,-2.50
2023-02-09T04:32:30.911Z,-2.80
2023-02-09T04:34:57.541Z,-2.80
2023-02-09T04:37:24.243Z,-2.60
2023-02-09T04:39:50.892Z,-2.40
2023-02-09T04:42:17.529Z,-2.30
2023-02-09T04:44:44.178Z,-2.30
2023-02-09T04:47:10.782Z,-2.40
2023-02-09T04:49:37.462Z,-2.50
2023-02-09T04:52:04.065Z,-2.40
2023-02-09T04:54:30.750Z,-3.00
2023-02-09T04:56:57.408Z,-3.30
2023-02-09T04:59:24.041Z,-3.00
2023-02-09T05:01:50.685Z,-3.80
2023-02-09T05:04:17.343Z,-3.50
2023-02-09T05:06:43.993Z,-3.10
2023-02-09T05:09:10.631Z,-2.80
2023-02-09T05:11:37.270Z,-2.60
2023-02-09T05:14:03.976Z,-3.20
2023-02-09T05:16:30.737Z,-3.50
2023-02-09T05:18:57.472Z,-3.10
2023-02-09T05:21:24.139Z,-2.80
2023-02-09T05:23:50.825Z,-2.70
2023-02-09T05:26:17.454Z,-2.60
2023-02-09T05:28:44.095Z,-2.80
2023-02-09T05:31:10.775Z,-3.80
2023-02-09T05:33:37.571Z,-3.70
2023-02-09T05:36:04.251Z,-3.40
2023-02-09T05:38:30.872Z,-3.20
2023-02-09T05:40:57.537Z,-3.00
2023-02-09T05:43:24.203Z,-2.80
2023-02-09T05:45:50.960Z,-3.20
2023-02-09T05:48:17.708Z,-3.20
2023-02-09T05:50:44.687Z,-3.10
2023-02-09T05:53:12.204Z,-2.90
2023-02-09T05:55:39.498Z,-2.90
2023-02-09T05:58:06.224Z,-2.90
2023-02-09T06:00:32.909Z,-2.90
2023-02-09T06:02:59.592Z,-3.00
2023-02-09T06:05:26.259Z,-2.90
2023-02-09T06:08:11.872Z,-2.80
2023-02-09T06:10:38.496Z,-3.00
2023-02-09T06:13:05.169Z,-3.50
2023-02-09T06:15:31.821Z,-3.60
2023-02-09T06:17:58.427Z,-3.40
2023-02-09T06:20:25.011Z,-3.30
2023-02-09T06:22:51.715Z,-3.50
2023-02-09T06:25:18.429Z,-4.00
2023-02-09T06:27:45.113Z,-3.60
2023-02-09T06:30:11.762Z,-3.30
2023-02-09T06:32:38.411Z,-3.20
2023-02-09T06:35:05.056Z,-3.00
2023-02-09T06:37:31.743Z,-3.00
2023-02-09T06:39:58.392Z,-3.00
2023-02-09T06:42:25.033Z,-3.00
2023-02-09T06:44:51.728Z,-2.80
2023-02-09T06:47:18.383Z,-2.60
2023-02-09T06:49:45.090Z,-2.60
2023-02-09T06:52:11.853Z,-2.70
2023-02-09T06:54:38.570Z,-2.60
2023-02-09T06:57:05.209Z,-3.10
2023-02-09T06:59:31.848Z,-2.70
2023-02-09T07:01:58.571Z,-3.00
2023-02-09T07:04:25.225Z,-3.20
2023-02-09T07:06:51.871Z,-2.80
2023-02-09T07:09:18.522Z,-2.80
2023-02-09T07:11:45.195Z,-2.70
2023-02-09T07:14:11.807Z,-2.50
2023-02-09T07:16:38.467Z,-2.30
2023-02-09T07:19:05.100Z,-2.10
2023-02-09T07:21:31.737Z,-2.00
2023-02-09T07:23:58.428Z,-1.90
2023-02-09T07:26:25.112Z,-1.70
2023-02-09T07:28:51.844Z,-1.70
2023-02-09T07:31:18.721Z,-1.70
2023-02-09T07:33:45.483Z,-1.90
2023-02-09T07:36:12.118Z,-1.80
2023-02-09T07:38:38.910Z,-1.60
2023-02-09T07:41:05.684Z,-1.50
2023-02-09T07:43:32.345Z,-1.30
2023-02-09T07:45:59.053Z,-1.10
2023-02-09T07:48:25.680Z,-1.20
2023-02-09T07:50:52.301Z,-1.00
2023-02-09T07:53:18.916Z,-0.80
2023-02-09T07:55:45.897Z,-1.00
2023-02-09T07:58:12.771Z,-1.00
2023-02-09T08:00:39.423Z,-1.40
2023-02-09T08:03:06.039Z,-1.00
2023-02-09T08:05:32.655Z,-1.00
2023-02-09T08:07:59.358Z,-0.70
2023-02-09T08:10:26.132Z,-0.50
2023-02-09T08:12:52.849Z,-0.60
2023-02-09T08:15:19.461Z,-0.60
2023-02-09T08:17:46.134Z,-0.50
2023-02-09T08:20:12.810Z,-0.20
2023-02-09T08:22:39.452Z,0.10
2023-02-09T08:25:06.152Z,0.00
2023-02-09T08:27:32.806Z,0.10
2023-02-09T08:29:59.404Z,0.00
2023-02-09T08:32:26.048Z,0.10
2023-02-09T08:34:52.740Z,-0.30
2023-02-09T08:37:19.346Z,0.10
2023-02-09T08:39:46.005Z,-0.20
2023-02-09T08:42:12.695Z,0.30
2023-02-09T08:44:39.394Z,0.60
2023-02-09T08:47:06.163Z,0.80
2023-02-09T08:49:32.913Z,1.00
2023-02-09T08:51:59.633Z,0.80
2023-02-09T08:54:26.243Z,0.80
2023-02-09T08:56:52.872Z,0.80
2023-02-09T08:59:20.203Z,0.90
2023-02-09T09:01:47.120Z,0.90
2023-02-09T09:04:13.881Z,1.00
2023-02-09T09:06:40.651Z,1.10
2023-02-09T09:09:07.315Z,0.90
2023-02-09T09:11:33.999Z,1.30
2023-02-09T09:14:00.682Z,1.10
2023-02-09T09:16:27.381Z,1.60
2023-02-09T09:18:54.110Z,1.90
2023-02-09T09:21:20.798Z,2.20
2023-02-09T09:23:47.491Z,2.00
2023-02-09T09:26:14.223Z,2.20
2023-02-09T09:28:40.910Z,2.40
2023-02-09T09:31:07.612Z,2.60
2023-02-09T09:33:34.376Z,2.50
2023-02-09T09:36:01.056Z,2.60
2023-02-09T09:38:27.733Z,2.20
2023-02-09T09:40:54.418Z,2.40
2023-02-09T09:43:21.132Z,2.30
2023-02-09T09:45:48.106Z,2.70
2023-02-09T09:48:15.037Z,3.20
2023-02-09T09:50:41.699Z,3.10
2023-02-09T09:53:08.385Z,2.90
2023-02-09T09:55:35.057Z,2.90
2023-02-09T09:58:01.674Z,2.70
2023-02-09T10:00:28.343Z,3.20
2023-02-09T10:02:54.958Z,3.50
2023-02-09T10:05:21.727Z,3.60
2023-02-09T10:07:48.442Z,3.60
2023-02-09T10:10:15.100Z,3.80
2023-02-09T10:12:41.744Z,3.80
2023-02-09T10:15:08.454Z,4.10
2023-02-09T10:17:35.093Z,3.90
2023-02-09T10:20:01.709Z,4.10
2023-02-09T10:22:28.463Z,3.80
2023-02-09T10:24:55.226Z,4.10
2023-02-09T10:27:21.885Z,4.00
2023-02-09T10:29:48.579Z,3.70
2023-02-09T10:32:15.220Z,4.00
2023-02-09T10:34:41.903Z,4.10
2023-02-09T10:37:08.540Z,4.20
2023-02-09T10:39:35.189Z,4.20
2023-02-09T10:42:01.812Z,4.60
2023-02-09T10:44:28.428Z,4.70
2023-02-09T10:46:55.050Z,5.00
2023-02-09T10:49:21.707Z,4.60
2023-02-09T10:51:50.238Z,4.90
2023-02-09T10:54:17.648Z,5.10
2023-02-09T10:56:44.297Z,4.80
2023-02-09T10:59:10.931Z,5.00
2023-02-09T11:01:37.664Z,4.90
2023-02-09T11:04:04.379Z,4.50
2023-02-09T11:06:31.110Z,4.90
2023-02-09T11:08:57.733Z,4.80
2023-02-09T11:11:24.400Z,4.80
2023-02-09T11:13:51.032Z,4.90
2023-02-09T11:16:17.704Z,5.30
2023-02-09T11:18:44.396Z,5.00
2023-02-09T11:21:11.045Z,5.20
2023-02-09T11:23:37.748Z,5.20
2023-02-09T11:26:04.367Z,5.30
2023-02-09T11:28:31.025Z,5.30
2023-02-09T11:30:57.785Z,5.20
2023-02-09T11:33:24.494Z,5.00
2023-02-09T11:35:51.152Z,5.30
2023-02-09T11:38:17.797Z,5.10
2023-02-09T11:40:44.746Z,5.00
2023-02-09T11:43:11.476Z,5.20
2023-02-09T11:45:38.173Z,5.80
2023-02-09T11:48:04.790Z,5.70
2023-02-09T11:50:31.424Z,5.90
2023-02-09T11:52:58.079Z,6.40
2023-02-09T11:55:24.708Z,5.50
2023-02-09T11:57:51.427Z,5.60
2023-02-09T12:00:18.085Z,5.70
2023-02-09T12:02:44.728Z,5.80
2023-02-09T12:05:11.441Z,5.90
2023-02-09T12:07:38.151Z,5.60
2023-02-09T12:10:04.799Z,5.70
2023-02-09T12:12:31.469Z,5.30
2023-02-09T12:14:58.136Z,5.20
2023-02-09T12:17:24.823Z,5.00
2023-02-09T12:19:51.515Z,5.30
2023-02-09T12:22:18.169Z,5.50
2023-02-09T12:24:44.833Z,5.20
2023-02-09T12:27:11.495Z,5.30
2023-02-09T12:29:38.190Z,4.90
2023-02-09T12:32:04.871Z,5.00
2023-02-09T12:34:31.584Z,5.20
2023-02-09T12:36:58.247Z,5.90
2023-02-09T12:39:24.918Z,6.20
2023-02-09T12:41:51.664Z,6.10
2023-02-09T12:44:18.323Z,6.10
2023-02-09T12:46:45.046Z,5.40
2023-02-09T12:49:11.903Z,5.20
2023-02-09T12:51:38.610Z,5.00
2023-02-09T12:54:05.318Z,5.20
2023-02-09T12:56:31.966Z,5.80
2023-02-09T12:58:58.622Z,6.00
2023-02-09T13:01:25.374Z,6.30
2023-02-09T13:03:52.057Z,6.60
2023-02-09T13:06:18.802Z,6.60
2023-02-09T13:08:45.504Z,6.70
2023-02-09T13:11:12.193Z,5.90
2023-02-09T13:13:38.832Z,5.70
2023-02-09T13:16:05.845Z,5.90
2023-02-09T13:18:33.236Z,6.00
2023-02-09T13:20:59.903Z,6.40
2023-02-09T13:23:26.597Z,6.80
2023-02-09T13:25:53.303Z,7.00
2023-02-09T13:28:20.371Z,7.10
2023-02-09T13:30:47.088Z,6.70
2023-02-09T13:33:13.783Z,6.80
2023-02-09T13:35:40.505Z,5.60
2023-02-09T13:38:07.303Z,5.10
2023-02-09T13:40:33.937Z,5.30
2023-02-09T13:45:45.202Z,5.20
2023-02-09T13:48:13.189Z,4.80
2023-02-09T13:50:39.842Z,4.90
2023-02-09T13:53:06.456Z,4.90
2023-02-09T13:55:33.119Z,5.20
2023-02-09T13:57:59.777Z,5.40
2023-02-09T14:00:26.461Z,5.70
2023-02-09T14:02:53.185Z,5.20
2023-02-09T14:05:19.837Z,5.40
2023-02-09T14:07:46.503Z,5.30
2023-02-09T14:10:13.301Z,4.90
2023-02-09T14:12:39.996Z,4.60
2023-02-09T14:15:06.737Z,4.90
2023-02-09T14:17:33.485Z,5.50
2023-02-09T14:20:00.198Z,6.00
2023-02-09T14:22:26.904Z,6.30
2023-02-09T14:24:53.580Z,6.80
2023-02-09T14:27:20.259Z,6.40
2023-02-09T14:29:46.933Z,6.00
2023-02-09T14:32:15.425Z,5.60
2023-02-09T14:34:45.953Z,5.10
2023-02-09T14:37:12.607Z,4.80
2023-02-09T14:39:39.967Z,4.80
2023-02-09T14:42:06.618Z,5.20
2023-02-09T14:44:33.282Z,5.50
2023-02-09T14:46:59.953Z,5.50
2023-02-09T14:49:26.596Z,5.10
2023-02-09T14:51:53.373Z,5.30
2023-02-09T14:54:20.061Z,5.00
2023-02-09T14:56:46.745Z,5.20
2023-02-09T14:59:13.420Z,5.40
2023-02-09T15:01:40.556Z,5.80
2023-02-09T15:04:07.261Z,5.50
2023-02-09T15:06:33.975Z,5.00
2023-02-09T15:09:00.615Z,5.00
2023-02-09T15:11:27.296Z,5.20
2023-02-09T15:13:53.939Z,5.00
2023-02-09T15:16:20.724Z,5.40
2023-02-09T15:18:47.451Z,4.60
2023-02-09T15:21:14.099Z,4.50
2023-02-09T15:23:40.810Z,4.60
2023-02-09T15:26:07.449Z,4.20
2023-02-09T15:28:34.277Z,4.00
2023-02-09T15:31:01.006Z,4.10
2023-02-09T15:33:27.696Z,4.20
2023-02-09T15:35:54.358Z,4.30
2023-02-09T15:38:21.081Z,4.30
2023-02-09T15:40:47.973Z,4.50
2023-02-09T15:43:14.798Z,4.80
2023-02-09T15:45:41.488Z,4.50
2023-02-09T15:48:08.124Z,4.20
2023-02-09T15:50:34.847Z,3.60
2023-02-09T15:53:01.620Z,3.40
2023-02-09T15:55:28.320Z,3.70
2023-02-09T15:57:54.985Z,3.80
2023-02-09T16:00:21.659Z,4.10
2023-02-09T16:02:48.346Z,4.30
2023-02-09T16:05:15.090Z,4.40
2023-02-09T16:07:41.739Z,4.50
2023-02-09T16:10:08.338Z,4.20
2023-02-09T16:12:35.032Z,4.20
2023-02-09T16:15:01.671Z,4.20
2023-02-09T16:17:28.574Z,4.20
2023-02-09T16:19:55.224Z,4.30
2023-02-09T16:22:22.391Z,4.40
2023-02-09T16:24:49.062Z,4.40
2023-02-09T16:27:15.778Z,4.30
2023-02-09T16:29:42.402Z,3.70
2023-02-09T16:32:09.354Z,3.00
2023-02-09T16:34:36.053Z,2.50
2023-02-09T16:37:02.683Z,2.30
2023-02-09T16:39:29.377Z,2.70
2023-02-09T16:41:56.041Z,3.00
2023-02-09T16:44:22.758Z,3.20
2023-02-09T16:46:49.497Z,3.30
2023-02-09T16:49:16.120Z,3.40
2023-02-09T16:51:44.747Z,3.40
2023-02-09T16:54:11.374Z,3.40
2023-02-09T16:56:52.524Z,3.30
2023-02-09T16:59:20.518Z,3.30
2023-02-09T17:01:48.518Z,3.40
2023-02-09T17:04:15.434Z,3.40
2023-02-09T17:06:42.116Z,3.30
2023-02-09T17:09:08.765Z,3.20
2023-02-09T17:11:35.435Z,3.20
2023-02-09T17:14:02.089Z,3.10
2023-02-09T17:16:28.820Z,3.00
2023-02-09T17:18:55.507Z,2.60
2023-02-09T17:21:22.183Z,2.30
2023-02-09T17:23:48.891Z,2.00
2023-02-09T17:26:15.530Z,2.10
2023-02-09T17:28:43.135Z,2.00
2023-02-09T17:31:09.873Z,2.30
2023-02-09T17:33:36.570Z,2.50
2023-02-09T17:38:53.309Z,2.50
2023-02-09T17:41:19.987Z,2.40
2023-02-09T17:43:46.651Z,2.00
2023-02-09T17:46:13.327Z,2.00
2023-02-09T17:48:40.023Z,1.20
2023-02-09T17:51:06.730Z,1.10
2023-02-09T17:53:33.422Z,1.30
2023-02-09T17:56:00.136Z,1.60
2023-02-09T17:58:26.777Z,1.80
2023-02-09T18:00:53.507Z,1.90
2023-02-09T18:03:20.160Z,1.90
2023-02-09T18:05:46.999Z,1.80
2023-02-09T18:08:13.866Z,1.80
2023-02-09T18:10:40.542Z,1.00
2023-02-09T18:13:07.159Z,1.30
2023-02-09T18:15:33.796Z,1.60
2023-02-09T18:18:00.434Z,1.80
2023-02-09T18:20:27.055Z,1.90
2023-02-09T18:22:53.735Z,1.80
2023-02-09T18:25:20.414Z,1.80
2023-02-09T18:27:47.089Z,1.50
2023-02-09T18:30:13.757Z,1.30
2023-02-09T18:32:40.387Z,1.20
2023-02-09T18:35:07.142Z,1.20
2023-02-09T18:37:33.745Z,0.30
2023-02-09T18:40:00.376Z,0.30
2023-02-09T18:42:27.030Z,0.70
2023-02-09T18:44:53.692Z,0.90
2023-02-09T18:47:20.394Z,1.10
2023-02-09T18:49:47.066Z,1.10
2023-02-09T18:52:13.805Z,0.90
2023-02-09T18:54:40.528Z,1.10
2023-02-09T18:57:07.152Z,0.30
2023-02-09T18:59:33.829Z,0.40
2023-02-09T19:02:00.601Z,0.70
2023-02-09T19:04:27.381Z,0.50
2023-02-09T19:06:54.008Z,0.80
2023-02-09T19:09:20.704Z,0.80
2023-02-09T19:11:47.363Z,0.80
2023-02-09T19:14:14.072Z,0.90
2023-02-09T19:16:40.807Z,1.00
2023-02-09T19:19:07.447Z,0.60
2023-02-09T19:21:34.108Z,0.50
2023-02-09T19:24:00.774Z,0.20
2023-02-09T19:26:27.425Z,0.30
2023-02-09T19:28:54.093Z,0.40
2023-02-09T19:31:20.856Z,0.60
2023-02-09T19:33:47.465Z,0.40
2023-02-09T19:36:14.066Z,0.10
2023-02-09T19:38:40.757Z,-0.20
2023-02-09T19:41:10.836Z,-0.30
2023-02-09T19:43:37.670Z,-0.70
2023-02-09T19:46:04.381Z,-0.70
2023-02-09T19:48:31.095Z,-0.80
2023-02-09T19:50:57.714Z,-0.50
2023-02-09T19:53:24.407Z,-0.20
2023-02-09T19:55:51.091Z,0.20
2023-02-09T19:58:17.782Z,0.30
2023-02-09T20:00:44.494Z,0.20
2023-02-09T20:03:11.114Z,-0.30
2023-02-09T20:05:37.810Z,-0.60
2023-02-09T20:08:04.498Z,-0.50
2023-02-09T20:10:31.212Z,-0.50
2023-02-09T20:12:57.846Z,-0.40
2023-02-09T20:15:24.484Z,-0.90
2023-02-09T20:17:51.277Z,-0.90
2023-02-09T20:20:18.013Z,-0.70
2023-02-09T20:22:44.770Z,-0.40
2023-02-09T20:25:11.486Z,-0.20
2023-02-09T20:27:38.243Z,-0.30
2023-02-09T20:30:04.970Z,-0.40
2023-02-09T20:32:31.678Z,-0.70
2023-02-09T20:34:58.409Z,-0.40
2023-02-09T20:37:25.091Z,-0.20
2023-02-09T20:39:51.745Z,-0.40
2023-02-09T20:42:18.479Z,-0.30
2023-02-09T20:44:45.166Z,-0.60
2023-02-09T20:47:11.905Z,-0.50
2023-02-09T20:49:38.531Z,-1.10
2023-02-09T20:52:05.188Z,-0.80
2023-02-09T20:54:31.912Z,-0.60
2023-02-09T20:56:58.593Z,-0.50
2023-02-09T20:59:25.226Z,-0.30
2023-02-09T21:01:51.829Z,-0.30
2023-02-09T21:04:18.519Z,-0.30
2023-02-09T21:06:45.273Z,-0.30
2023-02-09T21:09:12.006Z,-0.30
2023-02-09T21:11:38.672Z,-0.30
2023-02-09T21:14:05.356Z,-0.40
2023-02-09T21:16:32.055Z,-0.40
2023-02-09T21:19:00.518Z,-0.40
2023-02-09T21:21:27.146Z,-0.40
2023-02-09T21:23:53.841Z,-0.90
2023-02-09T21:26:20.492Z,-0.80
2023-02-09T21:28:47.143Z,-0.60
2023-02-09T21:31:13.794Z,-0.50
2023-02-09T21:33:40.504Z,-0.70
2023-02-09T21:36:07.175Z,-0.70
2023-02-09T21:38:33.800Z,-0.80
2023-02-09T21:41:00.540Z,-1.60
2023-02-09T21:43:27.204Z,-1.70
2023-02-09T21:45:53.913Z,-1.40
2023-02-09T21:48:20.538Z,-1.20
2023-02-09T21:50:47.149Z,-1.00
2023-02-09T21:53:13.845Z,-1.00
2023-02-09T21:55:40.527Z,-1.00
2023-02-09T21:58:07.249Z,-1.00
2023-02-09T22:00:33.939Z,-1.80
2023-02-09T22:03:00.571Z,-1.50
2023-02-09T22:05:27.219Z,-1.20
2023-02-09T22:07:53.813Z,-1.20
2023-02-09T22:10:20.481Z,-1.40
2023-02-09T22:12:47.170Z,-1.30
2023-02-09T22:15:13.829Z,-1.10
2023-02-09T22:17:40.465Z,-1.40
2023-02-09T22:20:07.171Z,-1.50
2023-02-09T22:22:33.768Z,-1.40
2023-02-09T22:25:00.435Z,-1.40
2023-02-09T22:27:27.058Z,-1.30
2023-02-09T22:29:53.797Z,-1.30
2023-02-09T22:32:20.424Z,-1.30
2023-02-09T22:34:47.102Z,-1.20
2023-02-09T22:37:13.755Z,-1.20
2023-02-09T22:39:40.482Z,-1.30
2023-02-09T22:42:07.168Z,-1.90
2023-02-09T22:44:33.836Z,-2.00
2023-02-09T22:47:00.454Z,-2.10
2023-02-09T22:49:27.146Z,-1.80
2023-02-09T22:51:53.765Z,-1.60
2023-02-09T22:54:20.383Z,-1.60
2023-02-09T22:56:47.073Z,-2.40
2023-02-09T22:59:13.663Z,-2.40
2023-02-09T23:01:40.423Z,-2.10
2023-02-09T23:04:07.236Z,-1.80
2023-02-09T23:06:34.104Z,-1.60
2023-02-09T23:09:00.716Z,-1.60
2023-02-09T23:11:27.371Z,-1.60
2023-02-09T23:14:08.589Z,-1.60
2023-02-09T23:16:36.542Z,-1.60
2023-02-09T23:19:03.305Z,-1.50
2023-02-09T23:21:29.937Z,-1.60
2023-02-09T23:23:56.641Z,-1.60
2023-02-09T23:26:23.329Z,-1.50
2023-02-09T23:28:50.071Z,-1.60
2023-02-09T23:31:16.779Z,-2.10
2023-02-09T23:33:43.454Z,-2.00
2023-02-09T23:36:10.140Z,-1.90
2023-02-09T23:38:36.809Z,-1.90
2023-02-09T23:41:03.489Z,-1.90
2023-02-09T23:43:30.137Z,-1.90
2023-02-09T23:45:56.841Z,-2.00
2023-02-09T23:48:23.516Z,-2.00
2023-02-09T23:50:50.225Z,-1.90
2023-02-09T23:53:16.869Z,-1.90
2023-02-09T23:55:43.535Z,-1.90
2023-02-09T23:58:10.207Z,-1.90
